createdAt,value
2018-06-28T00:02:18.979Z,21.37
2018-06-28T00:04:48.060Z,19.30
2018-06-28T00:07:17.082Z,18.67
2018-06-28T00:09:46.072Z,19.87
2018-06-28T00:12:15.056Z,19.70
2018-06-28T00:14:44.130Z,17.57
2018-06-28T00:17:13.159Z,15.97
2018-06-28T00:19:42.119Z,13.40
2018-06-28T00:22:11.124Z,13.90
2018-06-28T00:24:40.163Z,13.60
2018-06-28T00:27:09.238Z,13.23
2018-06-28T00:29:38.342Z,12.63
2018-06-28T00:32:07.516Z,12.60
2018-06-28T00:34:36.487Z,12.47
2018-06-28T00:37:05.545Z,11.63
2018-06-28T00:39:34.564Z,12.13
2018-06-28T00:42:03.712Z,13.57
2018-06-28T00:44:32.728Z,13.33
2018-06-28T00:47:01.748Z,14.23
2018-06-28T00:49:30.782Z,12.43
2018-06-28T00:51:59.859Z,14.50
2018-06-28T00:54:28.887Z,13.40
2018-06-28T00:56:57.895Z,13.90
2018-06-28T00:59:26.836Z,14.80
2018-06-28T01:01:55.896Z,14.60
2018-06-28T01:04:24.903Z,16.07
2018-06-28T01:06:53.945Z,14.37
2018-06-28T01:09:23.008Z,14.43
2018-06-28T01:11:51.965Z,14.00
2018-06-28T01:14:20.990Z,14.87
2018-06-28T01:16:49.951Z,14.40
2018-06-28T01:19:19.034Z,13.47
2018-06-28T01:21:48.049Z,13.60
2018-06-28T01:24:17.036Z,13.30
2018-06-28T01:26:46.024Z,12.47
2018-06-28T01:29:15.053Z,11.60
2018-06-28T01:31:44.150Z,11.33
2018-06-28T01:34:13.313Z,13.50
2018-06-28T01:36:42.373Z,12.30
2018-06-28T01:39:12.452Z,11.70
2018-06-28T01:41:53.012Z,13.00
2018-06-28T01:44:22.041Z,14.87
2018-06-28T01:46:51.119Z,14.37
2018-06-28T01:49:20.237Z,15.30
2018-06-28T01:51:49.221Z,14.97
2018-06-28T01:54:18.234Z,14.73
2018-06-28T01:56:47.277Z,14.40
2018-06-28T01:59:16.299Z,15.97
2018-06-28T02:01:45.386Z,15.30
2018-06-28T02:04:14.401Z,14.10
2018-06-28T02:06:43.511Z,15.80
2018-06-28T02:09:12.533Z,16.57
2018-06-28T02:11:41.514Z,17.27
2018-06-28T02:14:10.612Z,15.27
2018-06-28T02:16:39.621Z,17.10
2018-06-28T02:19:08.584Z,15.33
2018-06-28T02:21:37.549Z,14.77
2018-06-28T02:24:06.566Z,16.20
2018-06-28T02:26:35.605Z,17.33
2018-06-28T02:29:04.611Z,17.87
2018-06-28T02:31:33.641Z,18.03
2018-06-28T02:34:02.627Z,18.70
2018-06-28T02:36:31.652Z,18.30
2018-06-28T02:39:00.751Z,17.47
2018-06-28T02:41:29.766Z,16.97
2018-06-28T02:43:58.724Z,17.60
2018-06-28T02:46:27.767Z,18.30
2018-06-28T02:48:56.787Z,18.73
2018-06-28T02:51:25.876Z,18.07
2018-06-28T02:53:54.970Z,18.47
2018-06-28T02:56:24.157Z,16.60
2018-06-28T02:58:53.129Z,17.10
2018-06-28T03:01:22.097Z,18.30
2018-06-28T03:03:51.144Z,17.43
2018-06-28T03:06:20.152Z,18.50
2018-06-28T03:08:49.217Z,16.13
2018-06-28T03:11:18.529Z,17.53
2018-06-28T03:13:47.544Z,17.60
2018-06-28T03:16:16.613Z,18.60
2018-06-28T03:18:45.564Z,17.30
2018-06-28T03:21:14.523Z,17.90
2018-06-28T03:23:43.525Z,18.10
2018-06-28T03:26:12.464Z,17.17
2018-06-28T03:28:41.477Z,18.90
2018-06-28T03:31:10.433Z,18.43
2018-06-28T03:33:39.392Z,16.63
2018-06-28T03:36:08.516Z,18.67
2018-06-28T03:38:37.534Z,18.50
2018-06-28T03:41:06.817Z,15.77
2018-06-28T03:43:35.893Z,15.70
2018-06-28T03:46:05.010Z,19.27
2018-06-28T03:48:34.064Z,19.93
2018-06-28T03:51:03.156Z,19.00
2018-06-28T03:53:32.205Z,18.93
2018-06-28T03:56:01.177Z,17.70
2018-06-28T03:58:30.164Z,18.73
2018-06-28T04:00:59.227Z,19.80
2018-06-28T04:03:28.229Z,19.07
2018-06-28T04:05:57.316Z,18.70
2018-06-28T04:08:26.272Z,20.90
2018-06-28T04:10:55.281Z,17.77
2018-06-28T04:13:24.368Z,18.37
2018-06-28T04:15:53.442Z,22.83
2018-06-28T04:18:22.537Z,19.20
2018-06-28T04:20:51.604Z,17.07
2018-06-28T04:23:20.566Z,17.87
2018-06-28T04:25:49.530Z,19.47
2018-06-28T04:28:18.554Z,19.07
2018-06-28T04:30:47.589Z,19.33
2018-06-28T04:33:16.672Z,18.80
2018-06-28T04:35:45.606Z,19.13
2018-06-28T04:38:14.721Z,20.33
2018-06-28T04:40:43.905Z,17.83
2018-06-28T04:43:12.981Z,19.70
2018-06-28T04:45:41.981Z,19.30
2018-06-28T04:48:10.956Z,21.53
2018-06-28T04:50:40.067Z,18.77
2018-06-28T04:53:09.095Z,20.57
2018-06-28T04:55:38.437Z,20.97
2018-06-28T04:58:07.505Z,19.33
2018-06-28T05:00:36.705Z,19.33
2018-06-28T05:03:05.773Z,20.40
2018-06-28T05:05:34.732Z,20.07
2018-06-28T05:08:03.864Z,18.23
2018-06-28T05:10:33.198Z,18.70
2018-06-28T05:13:02.214Z,18.40
2018-06-28T05:15:31.314Z,18.60
2018-06-28T05:18:00.325Z,15.97
2018-06-28T05:20:29.397Z,16.67
2018-06-28T05:22:58.434Z,16.60
2018-06-28T05:25:27.462Z,16.77
2018-06-28T05:27:56.508Z,18.80
2018-06-28T05:30:25.541Z,14.83
2018-06-28T05:32:54.652Z,15.37
2018-06-28T05:35:23.749Z,13.57
2018-06-28T05:37:52.744Z,14.20
2018-06-28T05:40:21.804Z,14.97
2018-06-28T05:42:50.829Z,14.33
2018-06-28T05:45:19.949Z,13.10
2018-06-28T05:47:48.937Z,12.87
2018-06-28T05:50:17.900Z,12.70
2018-06-28T05:52:47.217Z,12.30
2018-06-28T05:55:16.183Z,11.80
2018-06-28T05:57:45.219Z,11.30
2018-06-28T06:00:14.283Z,11.10
2018-06-28T06:02:43.333Z,8.50
2018-06-28T06:05:12.306Z,8.23
2018-06-28T06:07:41.268Z,10.13
2018-06-28T06:10:10.352Z,8.87
2018-06-28T06:12:39.389Z,9.03
2018-06-28T06:15:08.504Z,9.27
2018-06-28T06:17:37.552Z,9.30
2018-06-28T06:20:07.770Z,8.90
2018-06-28T06:22:36.857Z,9.47
2018-06-28T06:25:06.089Z,9.77
2018-06-28T06:27:35.080Z,7.57
2018-06-28T06:30:04.186Z,9.33
2018-06-28T06:32:33.167Z,8.60
2018-06-28T06:35:02.293Z,7.40
2018-06-28T06:37:31.295Z,7.33
2018-06-28T06:40:00.399Z,7.30
2018-06-28T06:42:29.489Z,9.03
2018-06-28T06:44:58.589Z,6.40
2018-06-28T06:47:27.620Z,7.40
2018-06-28T06:49:56.829Z,7.23
2018-06-28T06:52:25.785Z,6.93
2018-06-28T06:54:54.901Z,6.33
2018-06-28T06:57:23.905Z,7.43
2018-06-28T06:59:52.956Z,7.90
2018-06-28T07:02:21.977Z,8.80
2018-06-28T07:04:51.005Z,8.70
2018-06-28T07:07:20.009Z,9.37
2018-06-28T07:09:49.082Z,9.73
2018-06-28T07:12:18.115Z,8.23
2018-06-28T07:14:47.149Z,8.50
2018-06-28T07:17:16.239Z,6.80
2018-06-28T07:19:45.300Z,6.40
2018-06-28T07:22:14.383Z,7.07
2018-06-28T07:24:43.425Z,6.20
2018-06-28T07:27:12.418Z,5.70
2018-06-28T07:29:41.497Z,5.53
2018-06-28T07:32:10.456Z,4.03
2018-06-28T07:34:39.565Z,4.97
2018-06-28T07:37:08.529Z,6.03
2018-06-28T07:39:37.534Z,5.87
2018-06-28T07:42:06.705Z,4.83
2018-06-28T07:44:35.739Z,6.00
2018-06-28T07:47:04.758Z,5.60
2018-06-28T07:49:33.752Z,6.10
2018-06-28T07:52:02.703Z,6.53
2018-06-28T07:54:31.858Z,7.10
2018-06-28T07:57:00.834Z,6.90
2018-06-28T07:59:29.797Z,6.63
2018-06-28T08:01:58.840Z,7.50
2018-06-28T08:04:27.815Z,7.17
2018-06-28T08:06:56.865Z,6.70
2018-06-28T08:09:25.902Z,7.47
2018-06-28T08:11:54.915Z,8.10
2018-06-28T08:14:24.022Z,6.53
2018-06-28T08:16:53.096Z,6.57
2018-06-28T08:19:22.112Z,7.00
2018-06-28T08:21:51.128Z,5.77
2018-06-28T08:24:26.449Z,6.30
2018-06-28T08:26:55.495Z,6.10
2018-06-28T08:29:24.465Z,4.60
2018-06-28T08:31:53.481Z,4.40
2018-06-28T08:34:22.443Z,5.37
2018-06-28T08:36:51.572Z,4.77
2018-06-28T08:39:20.593Z,5.67
2018-06-28T08:41:49.538Z,4.80
2018-06-28T08:44:18.665Z,5.17
2018-06-28T08:46:47.697Z,4.97
2018-06-28T08:49:16.782Z,4.47
2018-06-28T08:51:45.733Z,4.53
2018-06-28T08:54:14.732Z,4.63
2018-06-28T08:57:14.706Z,4.87
2018-06-28T08:59:43.771Z,5.97
2018-06-28T09:02:12.957Z,4.63
2018-06-28T09:04:41.915Z,4.00
2018-06-28T09:07:10.913Z,4.70
2018-06-28T09:09:39.876Z,4.40
2018-06-28T09:12:08.869Z,4.80
2018-06-28T09:14:37.879Z,4.90
2018-06-28T09:17:06.887Z,4.77
2018-06-28T09:19:35.896Z,4.33
2018-06-28T09:22:04.856Z,4.50
2018-06-28T09:24:33.865Z,5.13
2018-06-28T09:27:02.972Z,4.57
2018-06-28T09:29:31.936Z,5.33
2018-06-28T09:32:00.978Z,4.40
2018-06-28T09:34:30.002Z,4.77
2018-06-28T09:36:59.172Z,3.80
2018-06-28T09:39:28.188Z,4.30
2018-06-28T09:41:57.119Z,3.90
2018-06-28T09:44:26.055Z,4.03
2018-06-28T09:46:55.017Z,4.23
2018-06-28T09:49:24.182Z,4.53
2018-06-28T09:51:53.229Z,5.67
2018-06-28T09:54:22.238Z,4.50
2018-06-28T09:56:51.168Z,4.50
2018-06-28T09:59:20.148Z,4.63
2018-06-28T10:01:49.080Z,4.07
2018-06-28T10:04:18.066Z,4.70
2018-06-28T10:06:47.072Z,4.10
2018-06-28T10:09:16.108Z,4.53
2018-06-28T10:11:45.136Z,4.60
2018-06-28T10:14:14.088Z,4.37
2018-06-28T10:16:43.052Z,5.10
2018-06-28T10:19:12.050Z,4.20
2018-06-28T10:21:41.060Z,4.63
2018-06-28T10:24:10.072Z,3.77
2018-06-28T10:26:39.137Z,4.10
2018-06-28T10:29:08.218Z,4.97
2018-06-28T10:31:37.241Z,4.53
2018-06-28T10:34:06.267Z,4.90
2018-06-28T10:36:35.280Z,4.57
2018-06-28T10:39:04.993Z,4.37
2018-06-28T10:41:34.010Z,5.80
2018-06-28T10:44:03.016Z,5.67
2018-06-28T10:46:32.112Z,4.90
2018-06-28T10:49:01.113Z,4.27
2018-06-28T10:51:30.136Z,5.20
2018-06-28T10:53:59.147Z,5.40
2018-06-28T10:56:28.159Z,4.00
2018-06-28T10:58:57.213Z,4.20
2018-06-28T11:01:26.404Z,5.13
2018-06-28T11:03:55.446Z,4.57
2018-06-28T11:06:24.473Z,5.00
2018-06-28T11:08:53.415Z,6.13
2018-06-28T11:11:22.524Z,4.87
2018-06-28T11:13:51.456Z,5.83
2018-06-28T11:16:20.452Z,5.90
2018-06-28T11:18:49.460Z,5.87
2018-06-28T11:21:18.502Z,5.67
2018-06-28T11:23:47.543Z,7.23
2018-06-28T11:26:16.618Z,6.60
2018-06-28T11:28:45.592Z,8.00
2018-06-28T11:31:14.579Z,8.17
2018-06-28T11:33:43.565Z,9.00
2018-06-28T11:36:12.688Z,9.33
2018-06-28T11:38:41.690Z,9.80
2018-06-28T11:41:10.676Z,11.23
2018-06-28T11:43:39.818Z,11.03
2018-06-28T11:46:08.914Z,10.50
2018-06-28T11:48:37.988Z,11.87
2018-06-28T11:51:07.045Z,11.70
2018-06-28T11:53:36.009Z,10.00
2018-06-28T11:56:05.077Z,12.13
2018-06-28T11:58:34.089Z,12.97
2018-06-28T12:01:03.113Z,12.23
2018-06-28T12:03:32.148Z,12.73
2018-06-28T12:06:01.123Z,15.03
2018-06-28T12:08:30.173Z,15.20
2018-06-28T12:10:59.205Z,13.13
2018-06-28T12:13:28.357Z,15.23
2018-06-28T12:15:57.359Z,15.37
2018-06-28T12:18:26.372Z,14.50
2018-06-28T12:20:55.432Z,14.57
2018-06-28T12:23:24.465Z,15.37
2018-06-28T12:25:53.636Z,13.60
2018-06-28T12:28:22.634Z,15.40
2018-06-28T12:30:51.700Z,16.27
2018-06-28T12:33:20.767Z,16.57
2018-06-28T12:35:53.861Z,17.57
2018-06-28T12:38:23.106Z,18.80
2018-06-28T12:40:52.063Z,16.07
2018-06-28T12:43:21.073Z,17.50
2018-06-28T12:45:50.148Z,19.50
2018-06-28T12:48:19.126Z,18.83
2018-06-28T12:50:48.230Z,19.40
2018-06-28T12:53:17.229Z,16.97
2018-06-28T12:56:20.753Z,16.67
2018-06-28T12:58:50.994Z,16.33
2018-06-28T13:01:20.289Z,16.57
2018-06-28T13:03:49.436Z,16.43
2018-06-28T13:06:19.135Z,15.97
2018-06-28T13:08:48.205Z,16.40
2018-06-28T13:11:17.168Z,16.50
2018-06-28T13:13:46.294Z,15.33
2018-06-28T13:16:16.493Z,13.63
2018-06-28T13:18:46.330Z,13.53
2018-06-28T13:21:15.372Z,13.90
2018-06-28T13:23:44.398Z,14.90
2018-06-28T13:26:14.593Z,12.10
2018-06-28T13:28:44.056Z,12.23
2018-06-28T13:31:13.131Z,11.23
2018-06-28T13:33:42.113Z,11.53
2018-06-28T13:36:11.085Z,11.90
2018-06-28T13:38:40.164Z,10.57
2018-06-28T13:41:09.362Z,11.43
2018-06-28T13:43:38.276Z,10.90
2018-06-28T13:46:07.287Z,11.87
2018-06-28T13:48:36.310Z,11.80
2018-06-28T13:51:05.351Z,13.07
2018-06-28T13:53:34.322Z,15.90
2018-06-28T13:56:03.317Z,18.27
2018-06-28T13:58:32.314Z,17.10
2018-06-28T14:01:01.408Z,17.87
2018-06-28T14:03:30.479Z,13.73
2018-06-28T14:05:59.468Z,11.40
2018-06-28T14:08:27.232Z,12.20
2018-06-28T14:10:56.261Z,12.40
2018-06-28T14:13:25.302Z,14.00
2018-06-28T14:15:54.402Z,11.20
2018-06-28T14:18:23.376Z,14.07
2018-06-28T14:20:52.459Z,13.60
2018-06-28T14:23:21.464Z,16.20
2018-06-28T14:25:50.505Z,17.23
2018-06-28T14:28:19.565Z,16.30
2018-06-28T14:30:48.540Z,16.13
2018-06-28T14:33:17.584Z,17.10
2018-06-28T14:35:46.589Z,15.47
2018-06-28T14:38:15.641Z,15.93
2018-06-28T14:40:44.681Z,11.70
2018-06-28T14:43:13.701Z,11.63
2018-06-28T14:45:42.685Z,12.13
2018-06-28T14:48:11.729Z,9.80
2018-06-28T14:50:40.884Z,10.60
2018-06-28T14:53:10.070Z,9.50
2018-06-28T14:55:39.142Z,10.10
2018-06-28T14:58:08.117Z,8.93
2018-06-28T15:00:37.153Z,9.97
2018-06-28T15:03:06.149Z,10.33
2018-06-28T15:05:35.290Z,9.20
2018-06-28T15:08:05.287Z,9.33
2018-06-28T15:10:34.247Z,9.60
2018-06-28T15:13:03.817Z,9.83
2018-06-28T15:15:32.830Z,7.13
2018-06-28T15:18:02.901Z,8.97
2018-06-28T15:20:32.456Z,8.70
2018-06-28T15:23:03.982Z,7.60
2018-06-28T15:25:33.996Z,7.40
2018-06-28T15:28:03.009Z,5.43
2018-06-28T15:30:32.113Z,5.07
2018-06-28T15:33:01.847Z,5.70
2018-06-28T15:35:31.233Z,5.97
2018-06-28T15:38:00.728Z,6.50
2018-06-28T15:40:30.154Z,7.80
2018-06-28T15:43:00.565Z,7.30
2018-06-28T15:45:29.528Z,6.90
2018-06-28T15:47:58.553Z,6.00
2018-06-28T15:50:31.798Z,6.63
2018-06-28T15:53:01.086Z,5.30
2018-06-28T15:55:30.475Z,6.23
2018-06-28T15:58:00.244Z,6.40
2018-06-28T16:00:32.993Z,5.80
2018-06-28T16:03:02.158Z,6.27
2018-06-28T16:05:31.576Z,8.43
2018-06-28T16:08:01.148Z,5.80
2018-06-28T16:10:31.118Z,5.77
2018-06-28T16:13:01.409Z,7.17
2018-06-28T16:15:30.683Z,7.20
2018-06-28T16:17:59.707Z,5.27
2018-06-28T16:20:29.284Z,5.83
2018-06-28T16:22:58.660Z,6.07
2018-06-28T16:25:27.685Z,4.53
2018-06-28T16:27:57.753Z,5.10
2018-06-28T16:30:27.857Z,4.90
2018-06-28T16:32:56.821Z,4.60
2018-06-28T16:35:25.828Z,4.67
2018-06-28T16:37:54.933Z,3.53
2018-06-28T16:40:23.929Z,3.30
2018-06-28T16:42:53.062Z,3.83
2018-06-28T16:45:22.105Z,2.73
2018-06-28T16:47:51.058Z,3.47
2018-06-28T16:50:20.064Z,2.93
2018-06-28T16:52:49.021Z,2.70
2018-06-28T16:55:18.105Z,3.57
2018-06-28T16:57:47.119Z,2.77
2018-06-28T17:00:16.145Z,2.50
2018-06-28T17:02:45.117Z,3.30
2018-06-28T17:05:14.189Z,2.93
2018-06-28T17:07:43.385Z,3.27
2018-06-28T17:10:12.313Z,3.50
2018-06-28T17:12:41.276Z,3.70
2018-06-28T17:15:10.255Z,3.83
2018-06-28T17:17:39.189Z,3.70
2018-06-28T17:20:08.340Z,3.43
2018-06-28T17:22:37.903Z,4.20
2018-06-28T17:25:07.067Z,3.97
2018-06-28T17:27:36.852Z,3.90
2018-06-28T17:30:06.227Z,3.97
2018-06-28T17:32:35.322Z,3.63
2018-06-28T17:35:04.295Z,4.60
2018-06-28T17:37:33.367Z,4.07
2018-06-28T17:40:02.733Z,6.00
2018-06-28T17:42:31.846Z,4.50
2018-06-28T17:45:00.971Z,5.17
2018-06-28T17:47:30.016Z,6.00
2018-06-28T17:49:59.070Z,5.30
2018-06-28T17:52:28.236Z,6.27
2018-06-28T17:54:57.210Z,5.97
2018-06-28T17:57:26.324Z,6.73
2018-06-28T17:59:55.387Z,6.63
2018-06-28T18:02:24.368Z,6.10
2018-06-28T18:04:53.524Z,6.70
2018-06-28T18:07:22.589Z,5.03
2018-06-28T18:09:51.704Z,5.20
2018-06-28T18:12:20.717Z,5.37
2018-06-28T18:14:49.702Z,4.90
2018-06-28T18:17:18.744Z,5.60
2018-06-28T18:19:47.763Z,5.97
2018-06-28T18:22:16.812Z,7.97
2018-06-28T18:24:45.832Z,6.37
2018-06-28T18:27:14.859Z,5.40
2018-06-28T18:29:43.862Z,5.80
2018-06-28T18:32:12.973Z,4.73
2018-06-28T18:34:42.042Z,5.10
2018-06-28T18:37:11.078Z,4.77
2018-06-28T18:39:40.133Z,4.80
2018-06-28T18:42:09.241Z,6.50
2018-06-28T18:44:38.198Z,6.10
2018-06-28T18:47:07.273Z,7.40
2018-06-28T18:49:36.378Z,6.60
2018-06-28T18:52:05.428Z,6.30
2018-06-28T18:54:34.424Z,6.90
2018-06-28T18:57:04.328Z,7.70
2018-06-28T18:59:33.581Z,7.13
2018-06-28T19:02:02.648Z,8.07
2018-06-28T19:04:31.734Z,9.30
2018-06-28T19:07:00.800Z,9.53
2018-06-28T19:09:34.858Z,8.30
2018-06-28T19:12:03.928Z,8.60
2018-06-28T19:15:40.585Z,8.10
2018-06-28T19:18:09.620Z,7.33
2018-06-28T19:20:38.634Z,7.00
2018-06-28T19:23:12.789Z,6.30
2018-06-28T19:25:41.759Z,6.90
2018-06-28T19:28:10.768Z,8.07
2018-06-28T19:31:47.544Z,13.87
2018-06-28T19:34:16.583Z,7.67
2018-06-28T19:36:45.603Z,9.40
2018-06-28T19:39:19.774Z,8.17
2018-06-28T19:41:53.922Z,10.00
2018-06-28T19:44:23.057Z,8.60
2018-06-28T19:46:52.117Z,8.20
2018-06-28T19:50:27.620Z,9.10
2018-06-28T19:53:02.128Z,9.07
2018-06-28T19:55:31.160Z,8.97
2018-06-28T19:58:00.164Z,9.23
2018-06-28T20:00:34.328Z,8.60
2018-06-28T20:03:08.433Z,9.10
2018-06-28T20:05:37.520Z,8.87
2018-06-28T20:08:06.606Z,9.83
2018-06-28T20:10:35.576Z,8.63
2018-06-28T20:13:09.610Z,8.13
2018-06-28T20:15:54.412Z,9.30
2018-06-28T20:18:28.427Z,8.03
2018-06-28T20:20:59.508Z,8.30
2018-06-28T20:23:28.757Z,7.60
2018-06-28T20:25:57.844Z,8.00
2018-06-28T20:28:31.956Z,6.60
2018-06-28T20:31:06.012Z,7.77
2018-06-28T20:33:40.047Z,8.53
2018-06-28T20:36:09.076Z,8.20
2018-06-28T20:38:38.171Z,8.53
2018-06-28T20:41:07.128Z,7.73
2018-06-28T20:43:36.081Z,8.87
2018-06-28T20:46:05.048Z,10.70
2018-06-28T20:48:34.082Z,9.70
2018-06-28T20:51:03.206Z,9.07
2018-06-28T20:53:32.341Z,9.10
2018-06-28T20:56:01.409Z,9.03
2018-06-28T20:58:30.394Z,8.70
2018-06-28T21:00:59.394Z,9.10
2018-06-28T21:03:28.432Z,9.20
2018-06-28T21:05:57.511Z,8.60
2018-06-28T21:08:26.543Z,8.90
2018-06-28T21:10:55.596Z,9.03
2018-06-28T21:13:24.561Z,8.07
2018-06-28T21:15:53.697Z,6.80
2018-06-28T21:18:22.718Z,6.40
2018-06-28T21:20:51.685Z,6.77
2018-06-28T21:23:20.663Z,6.80
2018-06-28T21:25:49.706Z,6.83
2018-06-28T21:28:18.740Z,6.80
2018-06-28T21:30:47.770Z,5.70
2018-06-28T21:33:16.732Z,5.77
2018-06-28T21:35:45.715Z,5.30
2018-06-28T21:38:14.769Z,5.93
2018-06-28T21:40:43.867Z,6.30
2018-06-28T21:43:12.899Z,5.27
2018-06-28T21:45:41.862Z,5.03
2018-06-28T21:48:10.992Z,6.00
2018-06-28T21:50:40.034Z,6.10
2018-06-28T21:53:09.044Z,5.37
2018-06-28T21:55:38.159Z,5.87
2018-06-28T21:58:07.070Z,5.80
2018-06-28T22:00:37.430Z,6.20
2018-06-28T22:03:07.728Z,6.03
2018-06-28T22:05:36.829Z,6.57
2018-06-28T22:08:06.135Z,5.80
2018-06-28T22:10:35.093Z,5.07
2018-06-28T22:13:04.125Z,5.30
2018-06-28T22:15:33.229Z,5.50
2018-06-28T22:18:03.385Z,5.13
2018-06-28T22:20:33.259Z,5.20
2018-06-28T22:23:02.265Z,4.73
2018-06-28T22:25:31.962Z,6.30
2018-06-28T22:28:00.978Z,6.17
2018-06-28T22:30:30.055Z,4.80
2018-06-28T22:32:59.141Z,5.57
2018-06-28T22:35:28.100Z,5.40
2018-06-28T22:37:57.140Z,4.20
2018-06-28T22:40:26.084Z,5.17
2018-06-28T22:42:55.110Z,4.43
2018-06-28T22:45:24.080Z,5.13
2018-06-28T22:47:53.159Z,4.40
2018-06-28T22:50:22.225Z,4.70
2018-06-28T22:52:51.264Z,4.00
2018-06-28T22:55:20.306Z,3.67
2018-06-28T22:57:49.333Z,3.90
2018-06-28T23:00:24.025Z,4.90
2018-06-28T23:02:53.117Z,5.17
2018-06-28T23:05:22.085Z,4.10
2018-06-28T23:07:51.102Z,5.87
2018-06-28T23:10:20.125Z,6.70
2018-06-28T23:12:49.107Z,7.33
2018-06-28T23:15:18.061Z,7.00
2018-06-28T23:17:47.100Z,8.67
2018-06-28T23:20:16.160Z,14.10
2018-06-28T23:22:48.489Z,15.77
2018-06-28T23:25:17.527Z,14.57
2018-06-28T23:27:47.290Z,11.53
2018-06-28T23:30:16.566Z,9.20
2018-06-28T23:32:45.582Z,7.90
2018-06-28T23:35:14.617Z,7.73
2018-06-28T23:37:43.657Z,8.33
2018-06-28T23:40:12.618Z,7.60
2018-06-28T23:42:41.690Z,7.17
2018-06-28T23:45:10.927Z,6.43
2018-06-28T23:47:39.999Z,7.13
2018-06-28T23:50:09.997Z,7.20
2018-06-28T23:52:39.053Z,7.07
2018-06-28T23:55:08.440Z,7.10
2018-06-28T23:57:37.508Z,7.20
